createdAt,value
2022-11-17T00:00:43.302Z,98507.52
2022-11-17T00:03:15.808Z,98508.45
2022-11-17T00:05:44.893Z,98505.85
2022-11-17T00:08:13.068Z,98506.59
2022-11-17T00:10:40.879Z,98507.55
2022-11-17T00:13:29.479Z,98503.59
2022-11-17T00:15:57.416Z,98501.33
2022-11-17T00:18:43.930Z,98497.94
2022-11-17T00:21:19.288Z,98494.73
2022-11-17T00:23:48.434Z,98491.08
2022-11-17T00:26:19.109Z,98491.88
2022-11-17T00:28:47.366Z,98488.83
2022-11-17T00:31:34.512Z,98489.70
2022-11-17T00:34:05.232Z,98489.34
2022-11-17T00:36:40.616Z,98488.06
2022-11-17T00:39:10.128Z,98487.69
2022-11-17T00:41:38.357Z,98483.85
2022-11-17T00:44:06.890Z,98483.17
2022-11-17T00:46:36.000Z,98477.52
2022-11-17T00:49:06.047Z,98478.99
2022-11-17T00:51:34.965Z,98469.30
2022-11-17T00:54:04.510Z,98468.04
2022-11-17T00:56:32.679Z,98460.86
2022-11-17T00:59:00.889Z,98460.30
2022-11-17T01:01:30.191Z,98458.80
2022-11-17T01:04:04.629Z,98458.59
2022-11-17T01:06:52.863Z,98457.58
2022-11-17T01:09:23.336Z,98457.35
2022-11-17T01:11:53.019Z,98454.33
2022-11-17T01:14:24.394Z,98450.16
2022-11-17T01:16:53.342Z,98448.45
2022-11-17T01:19:22.834Z,98444.69
2022-11-17T01:21:51.204Z,98440.05
2022-11-17T01:24:19.080Z,98439.27
2022-11-17T01:26:47.045Z,98438.96
2022-11-17T01:29:18.888Z,98435.56
2022-11-17T01:31:51.303Z,98431.58
2022-11-17T01:34:19.633Z,98426.59
2022-11-17T01:37:06.334Z,98425.84
2022-11-17T01:39:34.266Z,98424.21
2022-11-17T01:42:23.257Z,98422.34
2022-11-17T01:45:02.476Z,98412.77
2022-11-17T01:47:54.676Z,98412.69
2022-11-17T01:50:26.769Z,98411.36
2022-11-17T01:52:59.759Z,98410.80
2022-11-17T01:55:37.510Z,98405.69
2022-11-17T01:58:17.712Z,98402.81
2022-11-17T02:00:45.697Z,98393.98
2022-11-17T02:03:14.015Z,98392.61
2022-11-17T02:06:05.601Z,98395.94
2022-11-17T02:08:36.628Z,98396.84
2022-11-17T02:11:10.428Z,98396.67
2022-11-17T02:13:40.417Z,98393.02
2022-11-17T02:16:13.052Z,98391.77
2022-11-17T02:18:42.935Z,98391.33
2022-11-17T02:21:32.745Z,98390.63
2022-11-17T02:24:20.787Z,98390.91
2022-11-17T02:27:27.504Z,98389.59
2022-11-17T02:30:02.701Z,98390.05
2022-11-17T02:32:45.439Z,98393.61
2022-11-17T02:35:58.579Z,98395.85
2022-11-17T02:38:50.422Z,98391.61
2022-11-17T02:41:34.896Z,98393.73
2022-11-17T02:44:14.934Z,98393.15
2022-11-17T02:46:55.085Z,98395.27
2022-11-17T02:49:39.266Z,98394.77
2022-11-17T02:52:09.220Z,98395.80
2022-11-17T02:54:37.148Z,98397.29
2022-11-17T02:57:05.009Z,98400.35
2022-11-17T02:59:37.376Z,98397.38
2022-11-17T03:02:30.756Z,98397.06
2022-11-17T03:05:27.743Z,98393.23
2022-11-17T03:08:17.445Z,98395.91
2022-11-17T03:11:07.430Z,98392.30
2022-11-17T03:14:00.417Z,98388.39
2022-11-17T03:16:50.293Z,98385.05
2022-11-17T03:19:26.313Z,98387.13
2022-11-17T03:22:09.587Z,98389.08
2022-11-17T03:24:42.282Z,98386.48
2022-11-17T03:27:15.608Z,98385.77
2022-11-17T03:29:50.593Z,98383.80
2022-11-17T03:32:19.616Z,98382.61
2022-11-17T03:34:59.568Z,98378.21
2022-11-17T03:37:31.503Z,98377.26
2022-11-17T03:40:06.363Z,98376.97
2022-11-17T03:42:38.088Z,98378.86
2022-11-17T03:45:22.169Z,98378.15
2022-11-17T03:47:56.720Z,98375.91
2022-11-17T03:50:37.706Z,98379.23
2022-11-17T03:53:07.086Z,98377.80
2022-11-17T03:55:54.351Z,98378.08
2022-11-17T03:58:28.057Z,98382.23
2022-11-17T04:00:58.278Z,98381.39
2022-11-17T04:03:34.401Z,98383.52
2022-11-17T04:06:02.960Z,98387.56
2022-11-17T04:08:31.946Z,98388.45
2022-11-17T04:11:18.236Z,98388.23
2022-11-17T04:14:04.717Z,98390.48
2022-11-17T04:16:32.502Z,98393.88
2022-11-17T04:19:00.675Z,98396.25
2022-11-17T04:21:28.536Z,98399.34
2022-11-17T04:23:57.961Z,98404.13
2022-11-17T04:26:44.856Z,98406.50
2022-11-17T04:29:12.825Z,98409.53
2022-11-17T04:31:40.793Z,98409.86
2022-11-17T04:34:08.689Z,98407.32
2022-11-17T04:36:43.431Z,98410.61
2022-11-17T04:39:13.392Z,98415.48
2022-11-17T04:41:54.791Z,98417.83
2022-11-17T04:44:31.198Z,98418.77
2022-11-17T04:46:59.230Z,98419.64
2022-11-17T04:49:27.195Z,98420.74
2022-11-17T04:51:55.267Z,98421.20
2022-11-17T04:54:27.360Z,98417.19
2022-11-17T04:56:56.054Z,98414.48
2022-11-17T04:59:24.578Z,98407.95
2022-11-17T05:01:52.513Z,98407.32
2022-11-17T05:04:40.234Z,98408.20
2022-11-17T05:07:09.267Z,98407.38
2022-11-17T05:09:37.504Z,98410.63
2022-11-17T05:12:24.391Z,98413.85
2022-11-17T05:14:52.398Z,98414.14
2022-11-17T05:17:20.331Z,98417.10
2022-11-17T05:19:48.868Z,98421.12
2022-11-17T05:22:38.123Z,98422.80
2022-11-17T05:25:06.521Z,98424.75
2022-11-17T05:27:35.000Z,98423.12
2022-11-17T05:30:06.468Z,98423.98
2022-11-17T05:32:34.837Z,98425.90
2022-11-17T05:35:02.893Z,98436.88
2022-11-17T05:37:30.722Z,98442.38
2022-11-17T05:39:58.627Z,98447.02
2022-11-17T05:42:26.582Z,98450.64
2022-11-17T05:44:54.648Z,98458.05
2022-11-17T05:47:22.434Z,98460.00
2022-11-17T05:49:50.298Z,98467.35
2022-11-17T05:52:18.051Z,98469.28
2022-11-17T05:54:45.892Z,98475.30
2022-11-17T05:57:21.391Z,98481.38
2022-11-17T05:59:57.659Z,98484.10
2022-11-17T06:02:31.776Z,98487.23
2022-11-17T06:04:59.972Z,98484.79
2022-11-17T06:07:28.466Z,98484.91
2022-11-17T06:09:56.737Z,98495.89
2022-11-17T06:12:24.946Z,98505.12
2022-11-17T06:14:52.948Z,98510.77
2022-11-17T06:17:22.876Z,98518.19
2022-11-17T06:19:57.953Z,98524.55
2022-11-17T06:22:27.167Z,98526.89
2022-11-17T06:24:56.006Z,98528.86
2022-11-17T06:27:25.824Z,98536.79
2022-11-17T06:29:56.064Z,98541.32
2022-11-17T06:32:23.939Z,98547.58
2022-11-17T06:34:55.661Z,98545.71
2022-11-17T06:37:24.819Z,98548.55
2022-11-17T06:39:52.901Z,98551.51
2022-11-17T06:42:40.794Z,98556.90
2022-11-17T06:45:09.590Z,98558.88
2022-11-17T06:47:37.661Z,98559.53
2022-11-17T06:50:07.424Z,98568.93
2022-11-17T06:52:35.358Z,98570.83
2022-11-17T06:55:03.688Z,98564.91
2022-11-17T06:57:31.683Z,98563.00
2022-11-17T06:59:59.563Z,98562.96
2022-11-17T07:02:27.546Z,98564.14
2022-11-17T07:04:55.482Z,98564.36
2022-11-17T07:07:23.524Z,98569.66
2022-11-17T07:09:51.551Z,98572.79
2022-11-17T07:12:19.451Z,98574.74
2022-11-17T07:14:47.314Z,98582.02
2022-11-17T07:17:15.408Z,98586.43
2022-11-17T07:19:43.318Z,98590.89
2022-11-17T07:22:11.374Z,98585.21
2022-11-17T07:24:39.537Z,98586.41
2022-11-17T07:27:08.210Z,98594.24
2022-11-17T07:29:36.123Z,98595.04
2022-11-17T07:32:04.182Z,98602.40
2022-11-17T07:34:32.562Z,98610.77
2022-11-17T07:37:00.458Z,98615.86
2022-11-17T07:39:28.371Z,98617.71
2022-11-17T07:41:56.433Z,98619.81
2022-11-17T07:44:24.325Z,98616.23
2022-11-17T07:46:52.197Z,98615.80
2022-11-17T07:49:20.138Z,98620.44
2022-11-17T07:51:48.322Z,98622.90
2022-11-17T07:54:16.189Z,98627.90
2022-11-17T07:56:44.265Z,98630.12
2022-11-17T07:59:15.998Z,98632.36
2022-11-17T08:01:48.087Z,98633.79
2022-11-17T08:04:16.190Z,98634.18
2022-11-17T08:06:44.150Z,98635.30
2022-11-17T08:09:14.552Z,98639.98
2022-11-17T08:11:42.489Z,98641.19
2022-11-17T08:14:10.881Z,98638.31
2022-11-17T08:16:38.728Z,98643.91
2022-11-17T08:19:06.865Z,98641.68
2022-11-17T08:21:36.743Z,98647.93
2022-11-17T08:24:05.178Z,98651.81
2022-11-17T08:26:33.156Z,98650.12
2022-11-17T08:29:01.981Z,98652.10
2022-11-17T08:31:30.228Z,98650.67
2022-11-17T08:33:58.287Z,98652.08
2022-11-17T08:36:26.371Z,98658.60
2022-11-17T08:38:54.293Z,98660.29
2022-11-17T08:41:22.281Z,98661.88
2022-11-17T08:43:50.982Z,98669.89
2022-11-17T08:46:19.082Z,98676.36
2022-11-17T08:48:48.987Z,98677.39
2022-11-17T08:51:20.381Z,98689.80
2022-11-17T08:53:48.269Z,98688.73
2022-11-17T08:56:16.171Z,98693.83
2022-11-17T08:58:45.292Z,98692.88
2022-11-17T09:01:18.590Z,98699.79
2022-11-17T09:03:47.591Z,98706.34
2022-11-17T09:06:16.951Z,98712.45
2022-11-17T09:08:46.668Z,98720.27
2022-11-17T09:11:16.673Z,98723.25
2022-11-17T09:13:46.931Z,98722.34
2022-11-17T09:16:16.375Z,98720.98
2022-11-17T09:18:44.929Z,98724.22
2022-11-17T09:21:15.601Z,98722.54
2022-11-17T09:23:43.820Z,98723.48
2022-11-17T09:26:14.443Z,98724.02
2022-11-17T09:28:45.495Z,98724.48
2022-11-17T09:31:16.441Z,98722.17
2022-11-17T09:33:44.656Z,98722.17
2022-11-17T09:36:15.027Z,98722.53
2022-11-17T09:38:43.033Z,98724.88
2022-11-17T09:41:22.987Z,98730.38
2022-11-17T09:44:39.880Z,98734.41
2022-11-17T09:47:43.178Z,98737.26
2022-11-17T09:50:22.315Z,98738.00
2022-11-17T09:53:12.369Z,98740.48
2022-11-17T09:55:43.465Z,98739.05
2022-11-17T09:58:29.682Z,98739.70
2022-11-17T10:00:57.875Z,98743.52
2022-11-17T10:03:30.668Z,98741.54
2022-11-17T10:06:00.899Z,98744.91
2022-11-17T10:08:37.903Z,98745.57
2022-11-17T10:11:33.531Z,98747.29
2022-11-17T10:14:04.710Z,98750.13
2022-11-17T10:16:32.710Z,98750.91
2022-11-17T10:19:31.043Z,98755.14
2022-11-17T10:22:02.002Z,98756.77
2022-11-17T10:24:42.318Z,98761.67
2022-11-17T10:27:25.709Z,98765.37
2022-11-17T10:30:07.655Z,98766.23
2022-11-17T10:32:48.470Z,98770.11
2022-11-17T10:35:19.410Z,98772.62
2022-11-17T10:38:17.610Z,98774.57
2022-11-17T10:40:51.022Z,98772.40
2022-11-17T10:43:42.489Z,98774.19
2022-11-17T10:46:16.781Z,98771.94
2022-11-17T10:49:02.061Z,98770.48
2022-11-17T10:51:32.575Z,98772.79
2022-11-17T10:54:20.297Z,98774.40
2022-11-17T10:56:52.334Z,98773.95
2022-11-17T10:59:42.261Z,98770.80
2022-11-17T11:02:30.592Z,98768.34
2022-11-17T11:05:08.963Z,98772.61
2022-11-17T11:07:36.910Z,98775.13
2022-11-17T11:10:23.830Z,98774.38
2022-11-17T11:13:37.366Z,98774.42
2022-11-17T11:16:05.541Z,98774.09
2022-11-17T11:18:33.532Z,98774.66
2022-11-17T11:21:29.346Z,98777.27
2022-11-17T11:24:49.026Z,98778.67
2022-11-17T11:27:22.710Z,98783.85
2022-11-17T11:30:02.208Z,98787.60
2022-11-17T11:32:37.177Z,98795.39
2022-11-17T11:35:23.759Z,98802.91
2022-11-17T11:38:17.239Z,98810.50
2022-11-17T11:40:59.301Z,98808.41
2022-11-17T11:43:39.521Z,98805.61
2022-11-17T11:46:19.125Z,98806.89
2022-11-17T11:48:49.802Z,98809.67
2022-11-17T11:51:24.323Z,98814.96
2022-11-17T11:54:16.831Z,98814.55
2022-11-17T11:56:48.040Z,98819.40
2022-11-17T11:59:21.538Z,98821.44
2022-11-17T12:02:10.856Z,98822.67
2022-11-17T12:05:00.675Z,98825.75
2022-11-17T12:07:40.906Z,98825.44
2022-11-17T12:10:35.070Z,98829.17
2022-11-17T12:13:05.204Z,98831.20
2022-11-17T12:15:34.962Z,98837.17
2022-11-17T12:18:18.302Z,98839.31
2022-11-17T12:20:59.657Z,98838.52
2022-11-17T12:23:46.318Z,98839.84
2022-11-17T12:26:26.674Z,98843.08
2022-11-17T12:29:19.604Z,98843.20
2022-11-17T12:31:49.877Z,98841.30
2022-11-17T12:34:24.798Z,98844.63
2022-11-17T12:37:22.151Z,98842.79
2022-11-17T12:39:54.677Z,98844.82
2022-11-17T12:42:23.781Z,98845.43
2022-11-17T12:45:00.515Z,98843.33
2022-11-17T12:47:59.547Z,98842.02
2022-11-17T12:50:45.387Z,98847.14
2022-11-17T12:53:24.964Z,98850.59
2022-11-17T12:56:16.662Z,98857.13
2022-11-17T12:59:46.536Z,98860.86
2022-11-17T13:02:38.843Z,98863.02
2022-11-17T13:05:16.243Z,98860.21
2022-11-17T13:07:44.639Z,98866.81
2022-11-17T13:10:31.059Z,98868.20
2022-11-17T13:13:22.717Z,98869.23
2022-11-17T13:15:53.490Z,98872.64
2022-11-17T13:18:57.748Z,98869.63
2022-11-17T13:21:25.847Z,98873.70
2022-11-17T13:23:53.927Z,98873.68
2022-11-17T13:26:25.369Z,98874.37
2022-11-17T13:29:11.476Z,98870.86
2022-11-17T13:31:39.606Z,98867.17
2022-11-17T13:34:16.427Z,98868.89
2022-11-17T13:36:56.988Z,98873.27
2022-11-17T13:39:28.798Z,98874.86
2022-11-17T13:41:58.107Z,98875.36
2022-11-17T13:44:28.428Z,98874.95
2022-11-17T13:46:56.300Z,98879.66
2022-11-17T13:49:50.361Z,98880.05
2022-11-17T13:52:40.548Z,98886.52
2022-11-17T13:55:19.883Z,98894.81
2022-11-17T13:58:03.297Z,98894.94
2022-11-17T14:00:32.500Z,98897.00
2022-11-17T14:03:03.354Z,98896.96
2022-11-17T14:05:33.476Z,98899.84
2022-11-17T14:08:24.036Z,98901.88
2022-11-17T14:11:05.573Z,98899.48
2022-11-17T14:13:44.609Z,98897.41
2022-11-17T14:16:36.395Z,98904.61
2022-11-17T14:19:23.475Z,98900.80
2022-11-17T14:22:17.649Z,98903.23
2022-11-17T14:24:49.467Z,98905.48
2022-11-17T14:27:29.818Z,98904.36
2022-11-17T14:29:57.771Z,98900.70
2022-11-17T14:32:25.937Z,98903.86
2022-11-17T14:34:53.793Z,98908.90
2022-11-17T14:37:21.761Z,98911.61
2022-11-17T14:39:49.737Z,98916.80
2022-11-17T14:42:17.568Z,98917.98
2022-11-17T14:44:45.478Z,98917.33
2022-11-17T14:47:13.271Z,98917.70
2022-11-17T14:49:41.181Z,98913.94
2022-11-17T14:52:09.011Z,98917.44
2022-11-17T14:54:36.872Z,98917.67
2022-11-17T14:57:04.900Z,98916.37
2022-11-17T14:59:32.752Z,98914.52
2022-11-17T15:02:00.665Z,98915.17
2022-11-17T15:04:49.404Z,98915.46
2022-11-17T15:07:16.493Z,98914.25
2022-11-17T15:09:44.314Z,98917.05
2022-11-17T15:12:12.112Z,98923.05
2022-11-17T15:14:39.947Z,98930.87
2022-11-17T15:17:13.922Z,98932.34
2022-11-17T15:19:42.640Z,98935.04
2022-11-17T15:22:12.044Z,98935.19
2022-11-17T15:24:39.963Z,98932.05
2022-11-17T15:27:08.956Z,98930.60
2022-11-17T15:29:37.328Z,98932.10
2022-11-17T15:32:05.724Z,98939.27
2022-11-17T15:34:34.188Z,98944.35
2022-11-17T15:37:02.040Z,98944.21
2022-11-17T15:39:30.748Z,98947.21
2022-11-17T15:41:58.591Z,98950.95
2022-11-17T15:44:26.658Z,98948.90
2022-11-17T15:46:54.621Z,98944.20
2022-11-17T15:49:22.461Z,98945.92
2022-11-17T15:51:50.355Z,98947.73
2022-11-17T15:54:20.637Z,98946.52
2022-11-17T15:56:49.361Z,98946.30
2022-11-17T15:59:17.344Z,98945.16
2022-11-17T16:01:46.047Z,98944.95
2022-11-17T16:04:16.071Z,98945.39
2022-11-17T16:06:46.034Z,98948.98
2022-11-17T16:09:15.321Z,98944.79
2022-11-17T16:11:43.986Z,98941.05
2022-11-17T16:14:12.437Z,98937.52
2022-11-17T16:16:40.574Z,98933.48
2022-11-17T16:19:08.689Z,98933.16
2022-11-17T16:21:36.554Z,98934.33
2022-11-17T16:24:05.497Z,98933.80
2022-11-17T16:26:33.764Z,98933.55
2022-11-17T16:29:04.547Z,98931.63
2022-11-17T16:31:34.779Z,98928.04
2022-11-17T16:34:05.721Z,98931.91
2022-11-17T16:36:36.803Z,98931.86
2022-11-17T16:39:07.863Z,98935.00
2022-11-17T16:41:38.100Z,98939.92
2022-11-17T16:44:11.961Z,98940.59
2022-11-17T16:47:39.136Z,98938.00
2022-11-17T16:50:07.270Z,98937.03
2022-11-17T16:52:35.249Z,98939.67
2022-11-17T16:55:05.028Z,98939.52
2022-11-17T16:57:33.486Z,98940.66
2022-11-17T17:00:01.985Z,98947.60
2022-11-17T17:02:30.099Z,98954.01
2022-11-17T17:04:58.151Z,98957.48
2022-11-17T17:07:26.200Z,98960.88
2022-11-17T17:09:54.231Z,98958.73
2022-11-17T17:12:22.308Z,98962.31
2022-11-17T17:14:50.288Z,98959.14
2022-11-17T17:17:18.176Z,98958.73
2022-11-17T17:19:46.146Z,98958.81
2022-11-17T17:22:14.013Z,98966.65
2022-11-17T17:24:41.982Z,98965.59
2022-11-17T17:27:09.805Z,98959.95
2022-11-17T17:29:37.668Z,98962.07
2022-11-17T17:32:05.721Z,98959.07
2022-11-17T17:34:33.797Z,98956.95
2022-11-17T17:37:01.604Z,98955.14
2022-11-17T17:39:29.584Z,98952.60
2022-11-17T17:41:57.462Z,98948.81
2022-11-17T17:44:25.334Z,98946.64
2022-11-17T17:46:53.388Z,98941.59
2022-11-17T17:49:21.256Z,98940.72
2022-11-17T17:51:49.275Z,98945.48
2022-11-17T17:54:19.994Z,98951.37
2022-11-17T17:56:48.081Z,98951.76
2022-11-17T17:59:17.048Z,98953.23
2022-11-17T18:01:47.357Z,98953.21
2022-11-17T18:04:16.848Z,98950.98
2022-11-17T18:06:48.800Z,98951.67
2022-11-17T18:09:20.487Z,98948.56
2022-11-17T18:11:50.483Z,98947.52
2022-11-17T18:14:23.861Z,98947.79
2022-11-17T18:16:53.045Z,98944.40
2022-11-17T18:19:21.570Z,98951.20
2022-11-17T18:21:49.573Z,98955.53
2022-11-17T18:24:17.864Z,98960.12
2022-11-17T18:26:45.816Z,98962.84
2022-11-17T18:29:16.522Z,98961.25
2022-11-17T18:31:49.685Z,98962.95
2022-11-17T18:34:23.190Z,98957.10
2022-11-17T18:36:53.277Z,98955.55
2022-11-17T18:39:22.248Z,98952.88
2022-11-17T18:41:50.629Z,98955.70
2022-11-17T18:44:19.720Z,98953.86
2022-11-17T18:46:47.864Z,98953.27
2022-11-17T18:49:16.191Z,98965.01
2022-11-17T18:51:44.446Z,98962.80
2022-11-17T18:54:13.237Z,98954.89
2022-11-17T18:56:42.144Z,98953.27
2022-11-17T18:59:13.462Z,98952.86
2022-11-17T19:01:43.347Z,98947.45
2022-11-17T19:04:14.842Z,98943.91
2022-11-17T19:06:43.340Z,98943.41
2022-11-17T19:09:12.010Z,98948.98
2022-11-17T19:11:39.981Z,98950.97
2022-11-17T19:14:08.252Z,98950.92
2022-11-17T19:16:44.383Z,98954.03
2022-11-17T19:19:14.502Z,98956.33
2022-11-17T19:21:43.317Z,98957.73
2022-11-17T19:24:12.002Z,98959.92
2022-11-17T19:26:40.378Z,98957.46
2022-11-17T19:29:16.760Z,98957.12
2022-11-17T19:31:46.735Z,98958.48
2022-11-17T19:34:15.960Z,98960.85
2022-11-17T19:36:45.286Z,98965.74
2022-11-17T19:39:14.736Z,98966.29
2022-11-17T19:41:45.050Z,98971.77
2022-11-17T19:44:13.363Z,98973.29
2022-11-17T19:46:41.258Z,98972.67
2022-11-17T19:49:09.319Z,98973.38
2022-11-17T19:51:37.366Z,98974.05
2022-11-17T19:54:09.620Z,98970.26
2022-11-17T19:56:38.735Z,98965.50
2022-11-17T19:59:09.694Z,98964.40
2022-11-17T20:01:40.484Z,98970.01
2022-11-17T20:04:09.503Z,98977.09
2022-11-17T20:06:39.025Z,98978.14
2022-11-17T20:09:09.738Z,98978.77
2022-11-17T20:11:38.737Z,98980.40
2022-11-17T20:14:07.416Z,98984.91
2022-11-17T20:16:37.096Z,98994.63
2022-11-17T20:19:05.008Z,98995.16
2022-11-17T20:21:33.786Z,98992.88
2022-11-17T20:24:02.588Z,98990.14
2022-11-17T20:26:35.116Z,98992.36
2022-11-17T20:29:03.124Z,98996.64
2022-11-17T20:31:34.564Z,98994.50
2022-11-17T20:34:05.324Z,98993.13
2022-11-17T20:36:35.008Z,98989.98
2022-11-17T20:39:05.944Z,98995.94
2022-11-17T20:41:35.039Z,98989.31
2022-11-17T20:44:03.570Z,98985.94
2022-11-17T20:46:31.798Z,98987.13
2022-11-17T20:48:59.667Z,98983.63
2022-11-17T20:51:27.757Z,98977.42
2022-11-17T20:53:55.809Z,98970.05
2022-11-17T20:56:23.881Z,98966.02
2022-11-17T20:58:51.860Z,98967.28
2022-11-17T21:01:23.053Z,98969.05
2022-11-17T21:03:51.148Z,98964.76
2022-11-17T21:06:20.356Z,98965.46
2022-11-17T21:08:48.528Z,98967.08
2022-11-17T21:11:40.567Z,98963.98
2022-11-17T21:14:11.706Z,98957.45
2022-11-17T21:16:47.152Z,98954.97
2022-11-17T21:19:16.539Z,98948.52
2022-11-17T21:21:45.750Z,98952.64
2022-11-17T21:24:13.927Z,98951.92
2022-11-17T21:26:42.099Z,98949.77
2022-11-17T21:29:10.213Z,98950.34
2022-11-17T21:31:38.436Z,98951.85
2022-11-17T21:34:07.745Z,98949.36
2022-11-17T21:36:36.326Z,98944.93
2022-11-17T21:39:05.007Z,98938.42
2022-11-17T21:41:38.638Z,98940.13
2022-11-17T21:44:06.595Z,98943.55
2022-11-17T21:46:36.447Z,98944.18
2022-11-17T21:49:04.614Z,98947.58
2022-11-17T21:51:38.709Z,98947.02
2022-11-17T21:54:08.877Z,98953.20
2022-11-17T21:56:37.497Z,98952.65
2022-11-17T21:59:10.369Z,98954.59
2022-11-17T22:01:39.719Z,98956.41
2022-11-17T22:04:07.740Z,98956.77
2022-11-17T22:06:37.656Z,98954.52
2022-11-17T22:09:05.739Z,98952.96
2022-11-17T22:11:35.517Z,98950.95
2022-11-17T22:14:19.423Z,98949.20
2022-11-17T22:16:52.346Z,98950.64
2022-11-17T22:19:22.858Z,98950.13
2022-11-17T22:21:53.306Z,98954.75
2022-11-17T22:24:23.237Z,98952.16
2022-11-17T22:26:51.857Z,98950.39
2022-11-17T22:29:22.245Z,98951.77
2022-11-17T22:31:50.828Z,98956.02
2022-11-17T22:34:18.862Z,98957.56
2022-11-17T22:36:47.065Z,98948.14
2022-11-17T22:39:16.114Z,98942.42
2022-11-17T22:41:44.334Z,98941.67
2022-11-17T22:44:14.213Z,98949.27
2022-11-17T22:46:43.393Z,98946.98
2022-11-17T22:49:12.643Z,98943.77
2022-11-17T22:51:59.352Z,98939.98
2022-11-17T22:54:27.628Z,98933.61
2022-11-17T22:56:56.215Z,98935.27
2022-11-17T22:59:25.715Z,98938.59
2022-11-17T23:01:54.504Z,98931.32
2022-11-17T23:04:26.055Z,98919.39
2022-11-17T23:06:54.381Z,98913.36
2022-11-17T23:09:22.717Z,98914.77
2022-11-17T23:11:50.779Z,98913.08
2022-11-17T23:14:19.055Z,98915.17
2022-11-17T23:16:47.236Z,98916.12
2022-11-17T23:19:15.976Z,98906.08
2022-11-17T23:21:44.701Z,98903.63
2022-11-17T23:24:14.653Z,98901.80
2022-11-17T23:26:42.892Z,98905.40
2022-11-17T23:29:11.064Z,98897.64
2022-11-17T23:31:39.550Z,98892.79
2022-11-17T23:34:10.413Z,98887.95
2022-11-17T23:36:38.664Z,98874.00
2022-11-17T23:39:06.729Z,98876.10
2022-11-17T23:41:34.809Z,98885.26
2022-11-17T23:44:02.870Z,98890.21
2022-11-17T23:46:30.838Z,98898.88
2022-11-17T23:48:58.809Z,98905.91
2022-11-17T23:51:28.834Z,98910.24
2022-11-17T23:54:01.823Z,98898.70
2022-11-17T23:56:34.286Z,98901.13
2022-11-17T23:59:02.297Z,98898.19
